Latest Weather Observations for Karratha

IDW60801

Issued at 3:05 pm WST Saturday 29 November 2014 (issued every 30 minutes, with the page automatically refreshed every 10 minutes)

About weather observations | Map of weather stations | Latest weather observations for WA | Other Formats
Station Details ID: 004083 Name: KARRATHA AERO Lat: -20.71 Lon: 116.77 Height: 5.3 m
Data from the previous 72 hours. | See also: Recent months at Karratha
Date/Time
WST
Temp
°C
App
Temp
°C
Dew
Point
Rel
Hum
%
Delta-T
°C
Wind Press
QNH
hPa
Press
MSL
hPa
Rain
since 9 am
mm
Dir
 
Spd
km/h
Gust
km/h
Spd
kts
Gust
kts
29/03:00pm 34.3 32.8 20.3 44 9.4 NW 28 33 15 18 1005.8 1005.8 0.0
29/02:30pm 34.5 33.1 20.5 44 9.4 WNW 28 33 15 18 1006.0 1006.0 0.0
29/02:00pm 34.7 32.7 19.9 42 9.9 WNW 30 35 16 19 1006.3 1006.3 0.0
29/01:30pm 35.4 33.1 19.3 38 10.6 WNW 30 35 16 19 1006.5 1006.5 0.0
29/01:00pm 35.2 32.4 17.4 34 11.5 WNW 28 37 15 20 1006.7 1006.7 0.0
29/12:30pm 35.1 32.3 17.3 34 11.4 NW 28 33 15 18 1006.9 1006.9 0.0
29/12:00pm 34.7 31.8 17.0 35 11.3 WNW 28 32 15 17 1007.2 1007.2 0.0
29/11:30am 35.5 33.8 18.1 35 11.3 WNW 24 30 13 16 1007.5 1007.5 0.0
29/11:00am 35.4 34.4 18.0 35 11.3 NW 20 24 11 13 1007.8 1007.8 0.0
29/10:30am 35.7 33.7 13.8 27 13.4 WNW 17 22 9 12 1007.9 1007.9 0.0
29/10:00am 33.9 33.1 17.2 37 10.7 W 17 20 9 11 1008.4 1008.4 0.0
29/09:30am 32.8 31.6 17.0 38 10.1 W 19 22 10 12 1008.5 1008.5 0.0
29/09:00am 30.8 29.9 17.8 45 8.3 W 19 20 10 11 1008.6 1008.6 0.0
29/08:30am 28.7 29.1 19.1 56 6.2 W 15 17 8 9 1008.7 1008.7 0.0
29/08:00am 27.4 27.5 19.2 61 5.3 W 17 20 9 11 1008.8 1008.8 0.0
29/07:30am 26.5 26.7 19.4 65 4.6 W 17 20 9 11 1008.8 1008.8 0.0
29/07:00am 26.0 26.4 19.9 69 4.0 WSW 17 20 9 11 1008.7 1008.7 0.0
29/06:30am 25.2 25.7 20.0 73 3.4 WSW 17 20 9 11 1008.4 1008.4 0.0
29/06:00am 24.5 25.0 20.0 76 2.9 WSW 17 20 9 11 1008.2 1008.2 0.0
29/05:30am 24.2 24.7 20.1 78 2.7 WSW 17 20 9 11 1007.8 1007.8 0.0
29/05:00am 24.5 25.1 20.2 77 2.8 WSW 17 20 9 11 1007.6 1007.6 0.0
29/04:30am 24.9 25.3 20.6 77 2.8 WSW 19 20 10 11 1007.6 1007.6 0.0
29/04:00am 25.1 25.4 20.8 77 2.8 W 20 26 11 14 1007.5 1007.5 0.0
29/03:30am 25.3 25.8 21.2 78 2.7 WSW 20 24 11 13 1007.7 1007.7 0.0
29/03:00am 25.5 26.3 21.8 80 2.5 WSW 20 24 11 13 1007.6 1007.6 0.0
29/02:30am 25.6 26.6 22.1 81 2.3 WSW 20 24 11 13 1007.7 1007.7 0.0
29/02:00am 25.7 26.4 22.2 81 2.3 WSW 22 28 12 15 1007.8 1007.8 0.0
29/01:30am 25.7 25.7 22.4 82 2.2 WSW 26 30 14 16 1007.7 1007.7 0.0
29/01:00am 25.8 25.5 22.5 82 2.2 WSW 28 33 15 18 1007.8 1007.8 0.0
29/12:30am 25.8 25.9 22.5 82 2.2 W 26 33 14 18 1008.3 1008.3 0.0
29/12:00am 26.0 25.7 22.5 81 2.4 W 28 32 15 17 1008.6 1008.6 0.0
 
Date/Time
WST
Temp
°C
App
Temp
°C
Dew
Point
Rel
Hum
%
Delta-T
°C
Wind Press
QNH
hPa
Press
MSL
hPa
Rain
since 9 am
mm
Dir
 
Spd
km/h
Gust
km/h
Spd
kts
Gust
kts
28/11:30pm 26.0 25.5 22.1 79 2.6 WSW 28 33 15 18 1008.9 1008.9 0.0
28/11:00pm 26.1 25.7 22.4 80 2.5 WSW 28 35 15 19 1009.1 1009.1 0.0
28/10:30pm 26.3 26.0 22.6 80 2.5 WSW 28 35 15 19 1009.2 1009.2 0.0
28/10:00pm 26.6 25.6 22.7 79 2.6 WSW 32 39 17 21 1009.4 1009.4 0.0
28/09:30pm 27.0 25.5 22.0 74 3.4 WSW 33 43 18 23 1009.5 1009.5 0.0
28/09:00pm 27.5 26.3 22.2 73 3.6 W 32 37 17 20 1009.3 1009.3 0.0
28/08:30pm 27.6 27.1 22.1 72 3.7 W 28 35 15 19 1009.2 1009.2 0.0
28/08:00pm 27.8 27.3 22.1 71 3.8 W 28 35 15 19 1009.1 1009.1 0.0
28/07:30pm 28.1 26.7 21.9 69 4.2 W 32 39 17 21 1008.8 1008.8 0.0
28/07:00pm 28.8 26.2 20.0 59 5.8 W 33 41 18 22 1008.6 1008.6 0.0
28/06:30pm 29.3 26.6 19.6 56 6.3 W 33 41 18 22 1008.2 1008.2 0.0
28/06:00pm 30.1 27.8 20.1 55 6.6 W 32 39 17 21 1008.1 1008.1 0.0
28/05:30pm 31.4 28.8 18.7 46 8.2 W 30 35 16 19 1007.8 1007.8 0.0
28/05:00pm 32.0 30.2 19.6 47 8.2 W 28 35 15 19 1007.6 1007.6 0.0
28/04:30pm 31.8 30.2 20.1 50 7.7 WNW 28 35 15 19 1007.3 1007.3 0.0
28/04:00pm 32.2 30.6 20.1 48 8.0 WNW 28 35 15 19 1007.3 1007.3 0.0
28/03:30pm 33.4 31.4 19.1 42 9.4 WNW 28 33 15 18 1007.3 1007.3 0.0
28/03:00pm 33.5 32.8 20.3 46 8.8 WNW 24 32 13 17 1007.5 1007.5 0.0
28/02:30pm 32.9 31.5 19.7 45 8.7 WNW 26 32 14 17 1007.8 1007.8 0.0
28/02:00pm 33.9 32.8 20.3 45 9.1 NW 26 33 14 18 1008.2 1008.2 0.0
28/01:30pm 33.6 31.9 19.7 44 9.2 NW 28 33 15 18 1008.6 1008.6 0.0
28/01:00pm 33.8 32.2 18.3 39 10.1 NW 24 32 13 17 1008.7 1008.7 0.0
28/12:30pm 34.3 32.9 17.9 37 10.6 WNW 22 28 12 15 1009.0 1009.0 0.0
28/12:00pm 33.9 33.1 18.4 40 10.1 WNW 20 26 11 14 1009.3 1009.3 0.0
28/11:30am 33.5 32.5 18.0 39 10.0 WNW 20 26 11 14 1009.7 1009.7 0.0
28/11:00am 32.9 32.4 19.0 43 9.1 WNW 20 26 11 14 1009.9 1009.9 0.0
28/10:30am 32.9 31.9 17.9 41 9.7 WNW 20 26 11 14 1010.2 1010.2 0.0
28/10:00am 33.2 32.4 17.0 38 10.3 W 17 20 9 11 1010.2 1010.2 0.0
28/09:30am 31.8 31.8 17.3 42 9.2 W 13 19 7 10 1010.6 1010.6 0.0
28/09:00am 30.7 30.8 18.4 47 7.9 WNW 15 19 8 10 1010.9 1010.9 0.0
28/08:30am 30.4 31.3 18.5 49 7.7 WSW 11 19 6 10 1010.9 1010.9 0.0
28/08:00am 29.4 30.2 18.2 51 7.2 SSW 11 17 6 9 1011.1 1011.1 0.0
28/07:30am 28.1 29.8 18.5 56 6.1 WSW 7 11 4 6 1011.1 1011.1 0.0
28/07:00am 26.9 28.2 18.5 60 5.4 WSW 9 13 5 7 1010.9 1010.9 0.0
28/06:30am 25.8 26.6 19.0 66 4.4 WSW 13 17 7 9 1010.5 1010.5 0.0
28/06:00am 24.6 25.5 19.2 72 3.5 WSW 13 15 7 8 1010.1 1010.1 0.0
28/05:30am 24.4 25.4 19.5 74 3.1 WSW 13 19 7 10 1010.0 1010.0 0.0
28/05:00am 24.6 25.2 19.4 73 3.3 SW 15 19 8 10 1009.6 1009.6 0.0
28/04:30am 25.0 24.9 19.6 72 3.5 WSW 19 22 10 12 1009.2 1009.2 0.0
28/04:00am 25.2 25.6 19.8 72 3.5 WSW 17 20 9 11 1009.2 1009.2 0.0
28/03:30am 25.5 26.2 19.6 70 3.8 WSW 15 17 8 9 1009.1 1009.1 0.0
28/03:00am 25.7 27.2 20.5 73 3.4 WSW 13 17 7 9 1009.1 1009.1 0.0
28/02:30am 25.6 27.5 20.6 74 3.3 WSW 11 15 6 8 1009.2 1009.2 0.0
28/02:00am 25.7 27.4 20.9 75 3.2 SW 13 17 7 9 1009.1 1009.1 0.0
28/01:30am 25.9 27.3 21.1 75 3.2 SW 15 19 8 10 1009.3 1009.3 0.0
28/01:00am 26.0 27.1 21.2 75 3.2 WSW 17 20 9 11 1009.4 1009.4 0.0
28/12:30am 26.1 26.7 21.3 75 3.2 WSW 20 24 11 13 1009.6 1009.6 0.0
28/12:00am 26.2 26.9 21.6 76 3.1 SW 20 26 11 14 1010.0 1010.0 0.0
 
Date/Time
WST
Temp
°C
App
Temp
°C
Dew
Point
Rel
Hum
%
Delta-T
°C
Wind Press
QNH
hPa
Press
MSL
hPa
Rain
since 9 am
mm
Dir
 
Spd
km/h
Gust
km/h
Spd
kts
Gust
kts
27/11:30pm 26.2 26.5 21.6 76 3.1 SW 22 28 12 15 1010.2 1010.2 0.0
27/11:00pm 26.6 27.7 22.0 76 3.1 WSW 19 22 10 12 1010.5 1010.5 0.0
27/10:30pm 26.9 28.1 22.5 77 3.0 WSW 20 26 11 14 1010.6 1010.6 0.0
27/10:00pm 27.2 27.3 22.6 76 3.1 WSW 26 32 14 17 1010.4 1010.4 0.0
27/09:30pm 27.4 28.1 23.0 77 3.0 WSW 24 32 13 17 1010.2 1010.2 0.0
27/09:00pm 28.1 29.1 23.5 76 3.2 W 24 32 13 17 1010.1 1010.1 0.0
27/08:30pm 27.8 28.3 24.0 80 2.6 W 28 32 15 17 1010.0 1010.0 0.0
27/08:00pm 27.8 28.9 24.4 82 2.4 W 26 30 14 16 1009.8 1009.8 0.0
27/07:30pm 28.1 29.9 24.9 83 2.2 W 24 28 13 15 1009.5 1009.5 0.0
27/07:00pm 28.6 30.4 24.2 77 3.1 WNW 22 30 12 16 1009.1 1009.1 0.0
27/06:30pm 28.8 30.5 24.1 76 3.3 WNW 22 30 12 16 1008.7 1008.7 0.0
27/06:00pm 29.7 31.3 23.9 71 4.0 NW 22 32 12 17 1008.2 1008.2 0.0
27/05:30pm 29.6 31.0 24.2 73 3.8 NNW 24 30 13 16 1007.8 1007.8 0.0
27/05:00pm 30.4 31.8 23.6 67 4.7 NNW 22 32 12 17 1007.5 1007.5 0.0
27/04:30pm 31.3 32.4 23.1 61 5.6 NNW 22 30 12 16 1007.6 1007.6 0.0
27/04:00pm 31.7 32.2 22.7 59 6.2 NNW 24 30 13 16 1007.7 1007.7 0.0
27/03:30pm 33.6 34.0 21.7 49 8.1 NNW 22 28 12 15 1007.9 1007.9 0.0
27/03:00pm 33.6 32.6 20.4 46 8.8 NNE 26 32 14 17 1008.0 1008.0 0.0
27/02:30pm 32.6 31.2 20.5 49 8.1 NNE 28 35 15 19 1008.3 1008.3 0.0
27/02:00pm 31.8 30.5 20.7 51 7.4 NNE 28 35 15 19 1008.8 1008.8 0.0
27/01:30pm 32.2 32.0 22.0 55 6.9 NNE 26 32 14 17 1009.0 1009.0 0.0
27/01:00pm 31.3 31.4 22.6 60 6.0 NNE 26 33 14 18 1009.2 1009.2 0.0
27/12:30pm 31.9 31.1 20.8 51 7.4 NE 26 33 14 18 1009.4 1009.4 0.0
27/12:00pm 31.7 30.5 20.9 52 7.2 NE 28 35 15 19 1009.5 1009.5 0.0
27/11:30am 32.0 30.5 20.9 52 7.4 NE 30 37 16 20 1009.7 1009.7 0.0
27/11:00am 32.6 31.4 20.8 49 7.9 NE 28 35 15 19 1009.8 1009.8 0.0
27/10:30am 32.7 30.8 20.2 47 8.3 NE 30 39 16 21 1009.9 1009.9 0.0
27/10:00am 31.8 29.7 21.0 52 7.2 NE 33 41 18 22 1010.1 1010.1 0.0
27/09:30am 32.0 31.6 20.9 52 7.4 ENE 24 32 13 17 1010.2 1010.2 0.0
27/09:00am 32.2 31.3 19.8 48 8.2 E 24 32 13 17 1010.2 1010.2 0.0
27/08:30am 30.9 30.9 20.2 53 7.1 ENE 20 28 11 15 1010.4 1010.4 0.0
27/08:00am 29.5 29.5 19.8 56 6.4 ENE 19 24 10 13 1010.4 1010.4 0.0
27/07:30am 29.1 30.9 20.3 59 5.8 ESE 11 17 6 9 1010.0 1010.0 0.0
27/07:00am 27.0 29.9 21.1 70 3.9 SSW 7 9 4 5 1009.9 1009.9 0.0
27/06:30am 25.7 27.7 21.6 78 2.7 SW 13 15 7 8 1009.4 1009.4 0.0
27/06:00am 25.1 26.4 21.6 81 2.3 WSW 17 20 9 11 1009.1 1009.1 0.0
27/05:30am 24.7 26.0 21.6 83 2.1 WSW 17 19 9 10 1009.0 1009.0 0.0
27/05:00am 24.6 26.5 21.3 82 2.2 WSW 13 15 7 8 1009.0 1009.0 0.0
27/04:30am 24.6 26.6 21.5 83 2.1 WSW 13 19 7 10 1008.7 1008.7 0.0
27/04:00am 24.7 25.5 21.4 82 2.2 WSW 19 22 10 12 1008.4 1008.4 0.0
27/03:30am 25.0 25.8 21.3 80 2.4 WSW 19 22 10 12 1008.3 1008.3 0.0
27/03:00am 25.0 25.8 20.7 77 2.8 SW 17 20 9 11 1008.2 1008.2 0.0
27/02:30am 25.3 26.6 21.6 80 2.5 SW 17 20 9 11 1008.3 1008.3 0.0
27/02:00am 25.4 26.4 22.1 82 2.2 WSW 20 26 11 14 1008.2 1008.2 0.0
27/01:30am 25.5 26.0 22.0 81 2.3 WSW 22 28 12 15 1008.1 1008.1 0.0
27/01:00am 25.8 26.4 22.1 80 2.5 WSW 22 28 12 15 1008.2 1008.2 0.0
27/12:30am 26.0 26.5 21.9 78 2.7 WSW 22 30 12 16 1008.3 1008.3 0.0
27/12:00am 26.2 26.5 21.6 76 3.1 WSW 22 26 12 14 1008.6 1008.6 0.0
 
Date/Time
WST
Temp
°C
App
Temp
°C
Dew
Point
Rel
Hum
%
Delta-T
°C
Wind Press
QNH
hPa
Press
MSL
hPa
Rain
since 9 am
mm
Dir
 
Spd
km/h
Gust
km/h
Spd
kts
Gust
kts
26/11:30pm 26.3 26.2 21.5 75 3.2 WSW 24 30 13 16 1008.5 1008.5 0.0
26/11:00pm 26.5 25.9 21.9 76 3.1 WSW 28 32 15 17 1008.6 1008.6 0.0
26/10:30pm 26.6 26.0 22.0 76 3.1 WSW 28 35 15 19 1008.5 1008.5 0.0
26/10:00pm 26.8 26.4 22.4 77 3.0 WSW 28 35 15 19 1008.4 1008.4 0.0
26/09:30pm 27.0 27.2 22.8 78 2.8 WSW 26 33 14 18 1008.0 1008.0 0.0
26/09:00pm 27.2 27.4 23.4 80 2.6 WSW 28 35 15 19 1007.7 1007.7 0.0
26/08:30pm 27.4 27.7 23.6 80 2.6 W 28 35 15 19 1007.7 1007.7 0.0
26/08:00pm 27.3 28.6 24.0 82 2.3 W 24 32 13 17 1007.6 1007.6 0.0
26/07:30pm 27.2 28.5 24.1 83 2.1 W 24 30 13 16 1007.4 1007.4 0.0
26/07:00pm 28.1 29.4 24.1 79 2.8 W 24 32 13 17 1007.1 1007.1 0.0
26/06:30pm 28.6 30.5 23.5 74 3.5 WNW 19 26 10 14 1006.9 1006.9 0.0
26/06:00pm 29.4 31.4 23.6 71 4.0 WNW 19 26 10 14 1006.7 1006.7 0.0
26/05:30pm 30.5 32.1 22.9 64 5.2 NW 19 26 10 14 1006.5 1006.5 0.0
26/05:00pm 31.3 32.2 21.5 56 6.6 NW 19 30 10 16 1006.5 1006.5 0.0
26/04:30pm 31.9 32.4 22.0 55 6.7 NNW 22 33 12 18 1006.5 1006.5 0.0
26/04:00pm 31.6 32.4 21.7 55 6.7 NNW 20 28 11 15 1006.6 1006.6 0.0
26/03:30pm 31.7 32.0 21.5 54 6.9 NNW 22 30 12 16 1006.8 1006.8 0.0

Other Formats:

Comma delimited format used in spreadsheet applications
http://www.bom.gov.au/fwo/IDW60801/IDW60801.95307.axf

JavaScript Object Notation format (JSON) in row-major order
http://www.bom.gov.au/fwo/IDW60801/IDW60801.95307.json